sensor_id;sensor_type;location;lat;lon;timestamp;P1;durP1;ratioP1;P2;durP2;ratioP2
60851;SDS011;48553;50.766;2.900;2023-06-14T00:02:09;10.95;;;6.25;;
60851;SDS011;48553;50.766;2.900;2023-06-14T00:05:09;10.27;;;5.80;;
60851;SDS011;48553;50.766;2.900;2023-06-14T00:08:12;10.70;;;6.03;;
60851;SDS011;48553;50.766;2.900;2023-06-14T00:11:13;10.35;;;5.90;;
60851;SDS011;48553;50.766;2.900;2023-06-14T00:14:14;11.32;;;6.22;;
60851;SDS011;48553;50.766;2.900;2023-06-14T00:17:14;13.18;;;6.32;;
60851;SDS011;48553;50.766;2.900;2023-06-14T00:20:16;10.23;;;6.00;;
60851;SDS011;48553;50.766;2.900;2023-06-14T00:23:17;11.98;;;5.82;;
60851;SDS011;48553;50.766;2.900;2023-06-14T00:26:17;10.75;;;5.72;;
60851;SDS011;48553;50.766;2.900;2023-06-14T00:29:18;9.82;;;5.50;;
60851;SDS011;48553;50.766;2.900;2023-06-14T00:32:18;9.57;;;5.50;;
60851;SDS011;48553;50.766;2.900;2023-06-14T00:35:19;11.88;;;5.85;;
60851;SDS011;48553;50.766;2.900;2023-06-14T00:38:20;9.60;;;5.50;;
60851;SDS011;48553;50.766;2.900;2023-06-14T00:41:21;9.43;;;5.40;;
60851;SDS011;48553;50.766;2.900;2023-06-14T00:44:21;11.02;;;5.85;;
60851;SDS011;48553;50.766;2.900;2023-06-14T00:47:22;10.55;;;5.63;;
60851;SDS011;48553;50.766;2.900;2023-06-14T00:50:23;10.80;;;6.15;;
60851;SDS011;48553;50.766;2.900;2023-06-14T00:53:24;10.48;;;5.88;;
60851;SDS011;48553;50.766;2.900;2023-06-14T00:56:25;11.63;;;6.03;;
60851;SDS011;48553;50.766;2.900;2023-06-14T00:59:26;12.27;;;6.10;;
60851;SDS011;48553;50.766;2.900;2023-06-14T01:02:26;11.68;;;6.28;;
60851;SDS011;48553;50.766;2.900;2023-06-14T01:05:26;11.80;;;6.78;;
60851;SDS011;48553;50.766;2.900;2023-06-14T01:12:11;9.93;;;6.43;;
60851;SDS011;48553;50.766;2.900;2023-06-14T01:15:27;12.00;;;6.15;;
60851;SDS011;48553;50.766;2.900;2023-06-14T01:18:31;11.97;;;7.00;;
60851;SDS011;48553;50.766;2.900;2023-06-14T01:21:32;11.43;;;6.45;;
60851;SDS011;48553;50.766;2.900;2023-06-14T01:24:41;12.20;;;7.28;;
60851;SDS011;48553;50.766;2.900;2023-06-14T01:27:45;11.25;;;6.22;;
60851;SDS011;48553;50.766;2.900;2023-06-14T01:30:46;14.23;;;6.85;;
60851;SDS011;48553;50.766;2.900;2023-06-14T01:33:52;12.35;;;6.82;;
60851;SDS011;48553;50.766;2.900;2023-06-14T01:36:53;11.20;;;6.93;;
60851;SDS011;48553;50.766;2.900;2023-06-14T01:39:57;12.18;;;7.20;;
60851;SDS011;48553;50.766;2.900;2023-06-14T01:42:58;14.90;;;6.90;;
60851;SDS011;48553;50.766;2.900;2023-06-14T01:45:59;11.35;;;7.05;;
60851;SDS011;48553;50.766;2.900;2023-06-14T01:49:00;16.60;;;7.68;;
60851;SDS011;48553;50.766;2.900;2023-06-14T01:52:01;12.57;;;7.35;;
60851;SDS011;48553;50.766;2.900;2023-06-14T01:55:01;12.55;;;7.15;;
60851;SDS011;48553;50.766;2.900;2023-06-14T01:58:03;12.57;;;6.95;;
60851;SDS011;48553;50.766;2.900;2023-06-14T02:01:04;14.88;;;7.60;;
60851;SDS011;48553;50.766;2.900;2023-06-14T02:04:05;10.88;;;7.68;;
60851;SDS011;48553;50.766;2.900;2023-06-14T02:07:05;13.27;;;7.82;;
60851;SDS011;48553;50.766;2.900;2023-06-14T02:10:06;10.85;;;7.25;;
60851;SDS011;48553;50.766;2.900;2023-06-14T02:13:07;11.40;;;7.30;;
60851;SDS011;48553;50.766;2.900;2023-06-14T02:16:07;14.48;;;7.35;;
60851;SDS011;48553;50.766;2.900;2023-06-14T02:19:08;12.73;;;7.32;;
60851;SDS011;48553;50.766;2.900;2023-06-14T02:22:08;13.95;;;7.35;;
60851;SDS011;48553;50.766;2.900;2023-06-14T02:25:09;11.52;;;7.70;;
60851;SDS011;48553;50.766;2.900;2023-06-14T02:28:10;13.27;;;7.85;;
60851;SDS011;48553;50.766;2.900;2023-06-14T02:31:10;14.48;;;8.02;;
60851;SDS011;48553;50.766;2.900;2023-06-14T02:34:11;12.38;;;7.72;;
60851;SDS011;48553;50.766;2.900;2023-06-14T02:37:11;14.23;;;7.60;;
60851;SDS011;48553;50.766;2.900;2023-06-14T02:40:13;12.23;;;7.80;;
60851;SDS011;48553;50.766;2.900;2023-06-14T02:43:13;12.93;;;7.72;;
60851;SDS011;48553;50.766;2.900;2023-06-14T02:46:14;12.18;;;7.80;;
60851;SDS011;48553;50.766;2.900;2023-06-14T02:49:15;13.98;;;7.60;;
60851;SDS011;48553;50.766;2.900;2023-06-14T02:52:15;10.35;;;7.60;;
60851;SDS011;48553;50.766;2.900;2023-06-14T02:55:16;13.18;;;7.68;;
60851;SDS011;48553;50.766;2.900;2023-06-14T02:58:16;11.77;;;7.72;;
60851;SDS011;48553;50.766;2.900;2023-06-14T03:01:18;13.15;;;7.25;;
60851;SDS011;48553;50.766;2.900;2023-06-14T03:04:19;12.90;;;7.70;;
60851;SDS011;48553;50.766;2.900;2023-06-14T03:07:20;10.30;;;6.90;;
60851;SDS011;48553;50.766;2.900;2023-06-14T03:10:23;12.07;;;7.53;;
60851;SDS011;48553;50.766;2.900;2023-06-14T03:13:23;13.95;;;8.13;;
60851;SDS011;48553;50.766;2.900;2023-06-14T03:16:23;11.52;;;7.95;;
60851;SDS011;48553;50.766;2.900;2023-06-14T03:19:24;13.43;;;8.10;;
60851;SDS011;48553;50.766;2.900;2023-06-14T03:22:25;13.55;;;7.90;;
60851;SDS011;48553;50.766;2.900;2023-06-14T03:25:26;11.95;;;7.55;;
60851;SDS011;48553;50.766;2.900;2023-06-14T03:28:29;12.73;;;7.47;;
60851;SDS011;48553;50.766;2.900;2023-06-14T03:31:29;10.93;;;7.68;;
60851;SDS011;48553;50.766;2.900;2023-06-14T03:34:33;12.00;;;7.70;;
60851;SDS011;48553;50.766;2.900;2023-06-14T03:37:34;11.98;;;7.60;;
60851;SDS011;48553;50.766;2.900;2023-06-14T03:40:35;11.13;;;7.47;;
60851;SDS011;48553;50.766;2.900;2023-06-14T03:43:35;12.95;;;7.30;;
60851;SDS011;48553;50.766;2.900;2023-06-14T03:46:36;17.08;;;7.93;;
60851;SDS011;48553;50.766;2.900;2023-06-14T03:49:36;12.20;;;7.97;;
60851;SDS011;48553;50.766;2.900;2023-06-14T03:52:37;12.70;;;8.27;;
60851;SDS011;48553;50.766;2.900;2023-06-14T03:55:37;13.65;;;8.20;;
60851;SDS011;48553;50.766;2.900;2023-06-14T03:58:38;13.90;;;7.90;;
60851;SDS011;48553;50.766;2.900;2023-06-14T04:01:38;13.73;;;7.82;;
60851;SDS011;48553;50.766;2.900;2023-06-14T04:04:46;13.52;;;7.78;;
60851;SDS011;48553;50.766;2.900;2023-06-14T04:07:48;12.25;;;7.88;;
60851;SDS011;48553;50.766;2.900;2023-06-14T04:10:50;11.68;;;8.10;;
60851;SDS011;48553;50.766;2.900;2023-06-14T04:13:51;11.68;;;7.28;;
60851;SDS011;48553;50.766;2.900;2023-06-14T04:16:53;12.52;;;7.68;;
60851;SDS011;48553;50.766;2.900;2023-06-14T04:19:54;11.85;;;7.70;;
60851;SDS011;48553;50.766;2.900;2023-06-14T04:22:56;13.32;;;7.90;;
60851;SDS011;48553;50.766;2.900;2023-06-14T04:25:57;10.57;;;7.43;;
60851;SDS011;48553;50.766;2.900;2023-06-14T04:29:02;13.32;;;7.60;;
60851;SDS011;48553;50.766;2.900;2023-06-14T04:32:02;12.43;;;7.50;;
60851;SDS011;48553;50.766;2.900;2023-06-14T04:35:06;12.02;;;7.93;;
60851;SDS011;48553;50.766;2.900;2023-06-14T04:38:07;13.35;;;7.97;;
60851;SDS011;48553;50.766;2.900;2023-06-14T04:41:11;12.45;;;7.93;;
60851;SDS011;48553;50.766;2.900;2023-06-14T04:44:11;11.07;;;7.85;;
60851;SDS011;48553;50.766;2.900;2023-06-14T04:47:12;13.32;;;8.20;;
60851;SDS011;48553;50.766;2.900;2023-06-14T04:50:14;13.40;;;8.18;;
60851;SDS011;48553;50.766;2.900;2023-06-14T04:53:14;13.05;;;8.00;;
60851;SDS011;48553;50.766;2.900;2023-06-14T04:56:15;13.00;;;8.30;;
60851;SDS011;48553;50.766;2.900;2023-06-14T04:59:16;12.57;;;8.05;;
60851;SDS011;48553;50.766;2.900;2023-06-14T05:02:23;13.77;;;7.93;;
60851;SDS011;48553;50.766;2.900;2023-06-14T05:08:24;13.90;;;7.57;;
60851;SDS011;48553;50.766;2.900;2023-06-14T05:11:25;11.13;;;7.03;;
60851;SDS011;48553;50.766;2.900;2023-06-14T05:14:27;12.85;;;7.60;;
60851;SDS011;48553;50.766;2.900;2023-06-14T05:17:27;11.35;;;7.72;;
60851;SDS011;48553;50.766;2.900;2023-06-14T05:20:27;10.52;;;7.32;;
60851;SDS011;48553;50.766;2.900;2023-06-14T05:23:28;10.90;;;7.32;;
60851;SDS011;48553;50.766;2.900;2023-06-14T05:26:29;10.70;;;7.30;;
60851;SDS011;48553;50.766;2.900;2023-06-14T05:29:30;11.18;;;7.10;;
60851;SDS011;48553;50.766;2.900;2023-06-14T05:32:30;13.18;;;7.90;;
60851;SDS011;48553;50.766;2.900;2023-06-14T05:35:31;13.23;;;7.63;;
60851;SDS011;48553;50.766;2.900;2023-06-14T05:38:31;11.98;;;7.55;;
60851;SDS011;48553;50.766;2.900;2023-06-14T05:41:32;13.13;;;7.53;;
60851;SDS011;48553;50.766;2.900;2023-06-14T05:44:32;11.43;;;7.03;;
60851;SDS011;48553;50.766;2.900;2023-06-14T05:47:33;12.95;;;7.38;;
60851;SDS011;48553;50.766;2.900;2023-06-14T05:50:33;13.13;;;6.97;;
60851;SDS011;48553;50.766;2.900;2023-06-14T05:53:34;12.98;;;7.00;;
60851;SDS011;48553;50.766;2.900;2023-06-14T05:56:35;10.15;;;6.75;;
60851;SDS011;48553;50.766;2.900;2023-06-14T05:59:35;10.13;;;6.93;;
60851;SDS011;48553;50.766;2.900;2023-06-14T06:02:36;9.25;;;6.20;;
60851;SDS011;48553;50.766;2.900;2023-06-14T06:05:36;8.98;;;6.40;;
60851;SDS011;48553;50.766;2.900;2023-06-14T06:08:37;11.48;;;6.60;;
60851;SDS011;48553;50.766;2.900;2023-06-14T06:11:37;10.60;;;6.22;;
60851;SDS011;48553;50.766;2.900;2023-06-14T06:14:38;9.40;;;6.50;;
60851;SDS011;48553;50.766;2.900;2023-06-14T06:17:38;13.93;;;6.70;;
60851;SDS011;48553;50.766;2.900;2023-06-14T06:20:39;9.95;;;6.60;;
60851;SDS011;48553;50.766;2.900;2023-06-14T06:23:39;11.18;;;6.60;;
60851;SDS011;48553;50.766;2.900;2023-06-14T06:26:40;9.98;;;6.28;;
60851;SDS011;48553;50.766;2.900;2023-06-14T06:29:41;12.80;;;6.68;;
60851;SDS011;48553;50.766;2.900;2023-06-14T06:32:43;10.90;;;6.78;;
60851;SDS011;48553;50.766;2.900;2023-06-14T06:35:43;11.02;;;6.25;;
60851;SDS011;48553;50.766;2.900;2023-06-14T06:38:44;9.20;;;6.13;;
60851;SDS011;48553;50.766;2.900;2023-06-14T06:41:44;9.20;;;6.22;;
60851;SDS011;48553;50.766;2.900;2023-06-14T06:44:45;9.82;;;6.28;;
60851;SDS011;48553;50.766;2.900;2023-06-14T06:47:45;11.15;;;6.18;;
60851;SDS011;48553;50.766;2.900;2023-06-14T06:50:45;10.88;;;6.25;;
60851;SDS011;48553;50.766;2.900;2023-06-14T06:53:51;12.45;;;6.03;;
60851;SDS011;48553;50.766;2.900;2023-06-14T06:56:55;8.65;;;5.63;;
60851;SDS011;48553;50.766;2.900;2023-06-14T06:59:55;9.38;;;6.20;;
60851;SDS011;48553;50.766;2.900;2023-06-14T07:02:57;9.13;;;5.90;;
60851;SDS011;48553;50.766;2.900;2023-06-14T07:05:57;8.52;;;5.70;;
60851;SDS011;48553;50.766;2.900;2023-06-14T07:08:58;10.13;;;5.88;;
60851;SDS011;48553;50.766;2.900;2023-06-14T07:12:01;9.18;;;5.65;;
60851;SDS011;48553;50.766;2.900;2023-06-14T07:15:02;9.35;;;5.95;;
60851;SDS011;48553;50.766;2.900;2023-06-14T07:18:02;13.35;;;5.88;;
60851;SDS011;48553;50.766;2.900;2023-06-14T07:21:03;8.95;;;5.65;;
60851;SDS011;48553;50.766;2.900;2023-06-14T07:24:04;9.82;;;5.97;;
60851;SDS011;48553;50.766;2.900;2023-06-14T07:27:08;8.27;;;5.30;;
60851;SDS011;48553;50.766;2.900;2023-06-14T07:30:09;7.75;;;5.45;;
60851;SDS011;48553;50.766;2.900;2023-06-14T07:33:10;8.50;;;5.68;;
60851;SDS011;48553;50.766;2.900;2023-06-14T07:36:12;7.82;;;5.18;;
60851;SDS011;48553;50.766;2.900;2023-06-14T07:39:12;7.20;;;5.13;;
60851;SDS011;48553;50.766;2.900;2023-06-14T07:42:13;9.30;;;5.50;;
60851;SDS011;48553;50.766;2.900;2023-06-14T07:45:14;8.60;;;5.05;;
60851;SDS011;48553;50.766;2.900;2023-06-14T07:48:14;8.07;;;5.10;;
60851;SDS011;48553;50.766;2.900;2023-06-14T07:51:14;8.30;;;4.90;;
60851;SDS011;48553;50.766;2.900;2023-06-14T07:54:15;8.88;;;4.72;;
60851;SDS011;48553;50.766;2.900;2023-06-14T07:57:16;9.80;;;5.20;;
60851;SDS011;48553;50.766;2.900;2023-06-14T08:00:17;8.52;;;4.40;;
60851;SDS011;48553;50.766;2.900;2023-06-14T08:03:18;9.27;;;5.15;;
60851;SDS011;48553;50.766;2.900;2023-06-14T08:06:19;7.88;;;4.65;;
60851;SDS011;48553;50.766;2.900;2023-06-14T08:09:20;6.22;;;4.57;;
60851;SDS011;48553;50.766;2.900;2023-06-14T08:12:20;7.32;;;4.78;;
60851;SDS011;48553;50.766;2.900;2023-06-14T08:15:21;7.90;;;4.85;;
60851;SDS011;48553;50.766;2.900;2023-06-14T08:18:21;7.68;;;4.72;;
60851;SDS011;48553;50.766;2.900;2023-06-14T08:21:21;7.65;;;5.00;;
60851;SDS011;48553;50.766;2.900;2023-06-14T08:24:22;8.57;;;4.93;;
60851;SDS011;48553;50.766;2.900;2023-06-14T08:27:26;8.35;;;5.07;;
60851;SDS011;48553;50.766;2.900;2023-06-14T08:30:27;7.72;;;4.50;;
60851;SDS011;48553;50.766;2.900;2023-06-14T08:33:28;6.32;;;4.80;;
60851;SDS011;48553;50.766;2.900;2023-06-14T08:36:28;6.32;;;4.38;;
60851;SDS011;48553;50.766;2.900;2023-06-14T08:39:28;7.32;;;4.72;;
60851;SDS011;48553;50.766;2.900;2023-06-14T08:42:29;7.65;;;4.85;;
60851;SDS011;48553;50.766;2.900;2023-06-14T08:45:31;7.82;;;5.10;;
60851;SDS011;48553;50.766;2.900;2023-06-14T08:48:31;7.68;;;4.55;;
60851;SDS011;48553;50.766;2.900;2023-06-14T08:51:32;7.93;;;4.80;;
60851;SDS011;48553;50.766;2.900;2023-06-14T08:57:44;7.63;;;4.82;;
60851;SDS011;48553;50.766;2.900;2023-06-14T09:00:46;6.45;;;4.55;;
60851;SDS011;48553;50.766;2.900;2023-06-14T09:03:46;6.47;;;4.68;;
60851;SDS011;48553;50.766;2.900;2023-06-14T09:06:48;8.32;;;4.55;;
60851;SDS011;48553;50.766;2.900;2023-06-14T09:10:05;6.53;;;4.25;;
60851;SDS011;48553;50.766;2.900;2023-06-14T09:13:08;5.90;;;4.28;;
60851;SDS011;48553;50.766;2.900;2023-06-14T09:16:09;6.53;;;4.13;;
60851;SDS011;48553;50.766;2.900;2023-06-14T09:19:13;6.18;;;4.43;;
60851;SDS011;48553;50.766;2.900;2023-06-14T09:22:20;7.38;;;4.50;;
60851;SDS011;48553;50.766;2.900;2023-06-14T09:25:21;6.68;;;4.35;;
60851;SDS011;48553;50.766;2.900;2023-06-14T09:28:31;5.88;;;4.07;;
60851;SDS011;48553;50.766;2.900;2023-06-14T09:31:32;7.32;;;4.40;;
60851;SDS011;48553;50.766;2.900;2023-06-14T09:34:33;7.45;;;4.47;;
60851;SDS011;48553;50.766;2.900;2023-06-14T09:37:35;7.40;;;5.00;;
60851;SDS011;48553;50.766;2.900;2023-06-14T09:40:38;7.28;;;4.32;;
60851;SDS011;48553;50.766;2.900;2023-06-14T09:43:38;6.28;;;4.70;;
60851;SDS011;48553;50.766;2.900;2023-06-14T09:46:39;7.95;;;5.43;;
60851;SDS011;48553;50.766;2.900;2023-06-14T09:49:40;8.40;;;5.05;;
60851;SDS011;48553;50.766;2.900;2023-06-14T09:52:41;8.93;;;4.50;;
60851;SDS011;48553;50.766;2.900;2023-06-14T09:58:45;6.53;;;4.63;;
60851;SDS011;48553;50.766;2.900;2023-06-14T10:01:46;6.50;;;4.70;;
60851;SDS011;48553;50.766;2.900;2023-06-14T10:04:58;7.03;;;5.95;;
60851;SDS011;48553;50.766;2.900;2023-06-14T10:08:15;8.57;;;4.30;;
60851;SDS011;48553;50.766;2.900;2023-06-14T10:11:18;6.45;;;4.65;;
60851;SDS011;48553;50.766;2.900;2023-06-14T10:14:18;6.88;;;4.50;;
60851;SDS011;48553;50.766;2.900;2023-06-14T10:20:40;8.73;;;5.68;;
60851;SDS011;48553;50.766;2.900;2023-06-14T10:23:48;8.82;;;7.03;;
60851;SDS011;48553;50.766;2.900;2023-06-14T10:26:58;9.63;;;6.43;;
60851;SDS011;48553;50.766;2.900;2023-06-14T10:33:04;7.03;;;5.95;;
60851;SDS011;48553;50.766;2.900;2023-06-14T10:36:08;7.43;;;5.03;;
60851;SDS011;48553;50.766;2.900;2023-06-14T10:39:38;7.18;;;4.88;;
60851;SDS011;48553;50.766;2.900;2023-06-14T10:42:51;10.48;;;5.43;;
60851;SDS011;48553;50.766;2.900;2023-06-14T10:49:17;6.72;;;5.10;;
60851;SDS011;48553;50.766;2.900;2023-06-14T10:52:23;7.13;;;4.72;;
60851;SDS011;48553;50.766;2.900;2023-06-14T10:55:28;8.10;;;4.60;;
60851;SDS011;48553;50.766;2.900;2023-06-14T10:58:35;6.53;;;4.80;;
60851;SDS011;48553;50.766;2.900;2023-06-14T11:01:36;6.00;;;4.88;;
60851;SDS011;48553;50.766;2.900;2023-06-14T11:11:08;8.60;;;5.00;;
60851;SDS011;48553;50.766;2.900;2023-06-14T11:14:09;9.45;;;4.88;;
60851;SDS011;48553;50.766;2.900;2023-06-14T11:17:11;5.90;;;4.55;;
60851;SDS011;48553;50.766;2.900;2023-06-14T11:20:12;7.03;;;4.85;;
60851;SDS011;48553;50.766;2.900;2023-06-14T11:23:16;6.80;;;5.35;;
60851;SDS011;48553;50.766;2.900;2023-06-14T11:26:23;6.47;;;5.15;;
60851;SDS011;48553;50.766;2.900;2023-06-14T11:29:26;7.43;;;5.30;;
60851;SDS011;48553;50.766;2.900;2023-06-14T11:32:31;6.67;;;4.77;;
60851;SDS011;48553;50.766;2.900;2023-06-14T11:35:31;7.00;;;5.07;;
60851;SDS011;48553;50.766;2.900;2023-06-14T11:38:36;6.20;;;4.50;;
60851;SDS011;48553;50.766;2.900;2023-06-14T11:41:38;7.13;;;5.22;;
60851;SDS011;48553;50.766;2.900;2023-06-14T11:44:42;7.30;;;4.97;;
60851;SDS011;48553;50.766;2.900;2023-06-14T11:47:42;7.10;;;4.95;;
60851;SDS011;48553;50.766;2.900;2023-06-14T11:50:42;8.45;;;4.65;;
60851;SDS011;48553;50.766;2.900;2023-06-14T11:53:43;7.75;;;5.22;;
60851;SDS011;48553;50.766;2.900;2023-06-14T11:56:43;7.25;;;5.50;;
60851;SDS011;48553;50.766;2.900;2023-06-14T11:59:44;7.78;;;5.03;;
60851;SDS011;48553;50.766;2.900;2023-06-14T12:02:55;5.88;;;4.80;;
60851;SDS011;48553;50.766;2.900;2023-06-14T12:06:06;6.07;;;4.53;;
60851;SDS011;48553;50.766;2.900;2023-06-14T12:09:07;7.97;;;5.10;;
60851;SDS011;48553;50.766;2.900;2023-06-14T12:12:12;6.85;;;4.85;;
60851;SDS011;48553;50.766;2.900;2023-06-14T12:15:13;6.85;;;4.90;;
60851;SDS011;48553;50.766;2.900;2023-06-14T12:18:13;8.55;;;4.75;;
60851;SDS011;48553;50.766;2.900;2023-06-14T12:21:14;7.78;;;5.38;;
60851;SDS011;48553;50.766;2.900;2023-06-14T12:24:15;6.97;;;5.10;;
60851;SDS011;48553;50.766;2.900;2023-06-14T12:27:15;7.40;;;5.10;;
60851;SDS011;48553;50.766;2.900;2023-06-14T12:30:18;8.68;;;5.45;;
60851;SDS011;48553;50.766;2.900;2023-06-14T12:33:19;9.10;;;5.10;;
60851;SDS011;48553;50.766;2.900;2023-06-14T12:36:19;9.50;;;5.60;;
60851;SDS011;48553;50.766;2.900;2023-06-14T12:39:20;7.22;;;5.03;;
60851;SDS011;48553;50.766;2.900;2023-06-14T12:42:21;6.70;;;4.80;;
60851;SDS011;48553;50.766;2.900;2023-06-14T12:45:21;7.28;;;4.75;;
60851;SDS011;48553;50.766;2.900;2023-06-14T12:48:23;7.20;;;4.95;;
60851;SDS011;48553;50.766;2.900;2023-06-14T12:51:23;11.25;;;6.72;;
60851;SDS011;48553;50.766;2.900;2023-06-14T12:54:25;7.53;;;4.72;;
60851;SDS011;48553;50.766;2.900;2023-06-14T12:57:25;7.65;;;5.10;;
60851;SDS011;48553;50.766;2.900;2023-06-14T13:00:26;6.88;;;5.50;;
60851;SDS011;48553;50.766;2.900;2023-06-14T13:03:26;7.65;;;4.93;;
60851;SDS011;48553;50.766;2.900;2023-06-14T13:06:27;8.63;;;4.93;;
60851;SDS011;48553;50.766;2.900;2023-06-14T13:09:29;8.50;;;4.85;;
60851;SDS011;48553;50.766;2.900;2023-06-14T13:12:29;6.78;;;5.05;;
60851;SDS011;48553;50.766;2.900;2023-06-14T13:15:30;7.03;;;4.78;;
60851;SDS011;48553;50.766;2.900;2023-06-14T13:18:30;6.25;;;4.57;;
60851;SDS011;48553;50.766;2.900;2023-06-14T13:21:31;7.70;;;4.97;;
60851;SDS011;48553;50.766;2.900;2023-06-14T13:24:31;6.35;;;4.57;;
60851;SDS011;48553;50.766;2.900;2023-06-14T13:27:32;8.60;;;5.35;;
60851;SDS011;48553;50.766;2.900;2023-06-14T13:30:32;6.55;;;4.95;;
60851;SDS011;48553;50.766;2.900;2023-06-14T13:33:33;8.63;;;4.65;;
60851;SDS011;48553;50.766;2.900;2023-06-14T13:36:33;6.18;;;4.53;;
60851;SDS011;48553;50.766;2.900;2023-06-14T13:39:34;6.07;;;5.05;;
60851;SDS011;48553;50.766;2.900;2023-06-14T13:42:37;9.02;;;7.25;;
60851;SDS011;48553;50.766;2.900;2023-06-14T13:45:37;7.75;;;5.50;;
60851;SDS011;48553;50.766;2.900;2023-06-14T13:48:38;8.63;;;5.10;;
60851;SDS011;48553;50.766;2.900;2023-06-14T13:51:38;7.30;;;4.78;;
60851;SDS011;48553;50.766;2.900;2023-06-14T13:54:39;7.50;;;4.85;;
60851;SDS011;48553;50.766;2.900;2023-06-14T13:57:39;7.70;;;4.40;;
60851;SDS011;48553;50.766;2.900;2023-06-14T14:00:39;6.40;;;4.82;;
60851;SDS011;48553;50.766;2.900;2023-06-14T14:03:40;7.55;;;4.97;;
60851;SDS011;48553;50.766;2.900;2023-06-14T14:06:40;7.57;;;5.45;;
60851;SDS011;48553;50.766;2.900;2023-06-14T14:09:41;5.80;;;4.35;;
60851;SDS011;48553;50.766;2.900;2023-06-14T14:12:43;15.48;;;9.15;;
60851;SDS011;48553;50.766;2.900;2023-06-14T14:15:43;8.25;;;5.78;;
60851;SDS011;48553;50.766;2.900;2023-06-14T14:18:44;7.60;;;4.70;;
60851;SDS011;48553;50.766;2.900;2023-06-14T14:21:45;6.25;;;4.28;;
60851;SDS011;48553;50.766;2.900;2023-06-14T14:24:46;8.40;;;4.60;;
60851;SDS011;48553;50.766;2.900;2023-06-14T14:27:47;7.95;;;6.32;;
60851;SDS011;48553;50.766;2.900;2023-06-14T14:30:47;10.73;;;4.75;;
60851;SDS011;48553;50.766;2.900;2023-06-14T14:33:48;8.32;;;5.00;;
60851;SDS011;48553;50.766;2.900;2023-06-14T14:36:48;8.10;;;5.07;;
60851;SDS011;48553;50.766;2.900;2023-06-14T14:39:49;6.22;;;5.40;;
60851;SDS011;48553;50.766;2.900;2023-06-14T14:42:49;8.18;;;4.70;;
60851;SDS011;48553;50.766;2.900;2023-06-14T14:45:49;7.25;;;4.88;;
60851;SDS011;48553;50.766;2.900;2023-06-14T14:48:50;9.80;;;6.40;;
60851;SDS011;48553;50.766;2.900;2023-06-14T14:51:50;10.38;;;7.30;;
60851;SDS011;48553;50.766;2.900;2023-06-14T14:54:51;7.45;;;4.35;;
60851;SDS011;48553;50.766;2.900;2023-06-14T14:57:51;9.60;;;4.80;;
60851;SDS011;48553;50.766;2.900;2023-06-14T15:00:52;7.68;;;4.40;;
60851;SDS011;48553;50.766;2.900;2023-06-14T15:03:52;8.95;;;4.30;;
60851;SDS011;48553;50.766;2.900;2023-06-14T15:06:53;8.38;;;4.60;;
60851;SDS011;48553;50.766;2.900;2023-06-14T15:09:54;9.32;;;4.82;;
60851;SDS011;48553;50.766;2.900;2023-06-14T15:12:55;6.45;;;4.45;;
60851;SDS011;48553;50.766;2.900;2023-06-14T15:15:55;8.30;;;4.53;;
60851;SDS011;48553;50.766;2.900;2023-06-14T15:18:56;7.60;;;4.40;;
60851;SDS011;48553;50.766;2.900;2023-06-14T15:21:56;6.78;;;4.55;;
60851;SDS011;48553;50.766;2.900;2023-06-14T15:24:58;6.40;;;4.40;;
60851;SDS011;48553;50.766;2.900;2023-06-14T15:27:59;8.23;;;5.75;;
60851;SDS011;48553;50.766;2.900;2023-06-14T15:31:01;7.30;;;4.65;;
60851;SDS011;48553;50.766;2.900;2023-06-14T15:34:01;7.72;;;4.45;;
60851;SDS011;48553;50.766;2.900;2023-06-14T15:37:02;5.50;;;3.88;;
60851;SDS011;48553;50.766;2.900;2023-06-14T15:40:03;7.07;;;4.43;;
60851;SDS011;48553;50.766;2.900;2023-06-14T15:43:05;7.68;;;5.10;;
60851;SDS011;48553;50.766;2.900;2023-06-14T15:46:06;6.20;;;4.15;;
60851;SDS011;48553;50.766;2.900;2023-06-14T15:49:09;6.93;;;4.93;;
60851;SDS011;48553;50.766;2.900;2023-06-14T15:52:10;5.20;;;3.95;;
60851;SDS011;48553;50.766;2.900;2023-06-14T15:55:11;6.13;;;4.00;;
60851;SDS011;48553;50.766;2.900;2023-06-14T15:58:11;8.77;;;5.35;;
60851;SDS011;48553;50.766;2.900;2023-06-14T16:01:11;6.95;;;4.10;;
60851;SDS011;48553;50.766;2.900;2023-06-14T16:04:12;7.55;;;4.15;;
60851;SDS011;48553;50.766;2.900;2023-06-14T16:07:13;6.95;;;5.20;;
60851;SDS011;48553;50.766;2.900;2023-06-14T16:10:14;6.65;;;4.00;;
60851;SDS011;48553;50.766;2.900;2023-06-14T16:13:14;7.95;;;5.28;;
60851;SDS011;48553;50.766;2.900;2023-06-14T16:16:15;8.45;;;4.97;;
60851;SDS011;48553;50.766;2.900;2023-06-14T16:19:15;7.70;;;4.57;;
60851;SDS011;48553;50.766;2.900;2023-06-14T16:22:16;8.60;;;4.93;;
60851;SDS011;48553;50.766;2.900;2023-06-14T16:25:16;5.95;;;4.30;;
60851;SDS011;48553;50.766;2.900;2023-06-14T16:28:17;7.22;;;4.68;;
60851;SDS011;48553;50.766;2.900;2023-06-14T16:31:17;6.10;;;4.82;;
60851;SDS011;48553;50.766;2.900;2023-06-14T16:34:19;8.10;;;4.90;;
60851;SDS011;48553;50.766;2.900;2023-06-14T16:37:19;6.90;;;4.80;;
60851;SDS011;48553;50.766;2.900;2023-06-14T16:40:20;9.77;;;6.22;;
60851;SDS011;48553;50.766;2.900;2023-06-14T16:43:21;9.77;;;6.78;;
60851;SDS011;48553;50.766;2.900;2023-06-14T16:46:28;6.80;;;4.85;;
60851;SDS011;48553;50.766;2.900;2023-06-14T16:49:31;9.95;;;4.90;;
60851;SDS011;48553;50.766;2.900;2023-06-14T16:52:31;6.20;;;4.00;;
60851;SDS011;48553;50.766;2.900;2023-06-14T16:55:31;6.93;;;4.30;;
60851;SDS011;48553;50.766;2.900;2023-06-14T16:58:34;5.85;;;4.20;;
60851;SDS011;48553;50.766;2.900;2023-06-14T17:01:34;5.30;;;3.70;;
60851;SDS011;48553;50.766;2.900;2023-06-14T17:04:35;6.47;;;3.92;;
60851;SDS011;48553;50.766;2.900;2023-06-14T17:07:35;7.00;;;3.83;;
60851;SDS011;48553;50.766;2.900;2023-06-14T17:10:36;5.30;;;3.53;;
60851;SDS011;48553;50.766;2.900;2023-06-14T17:13:36;5.88;;;3.78;;
60851;SDS011;48553;50.766;2.900;2023-06-14T17:16:37;6.50;;;3.50;;
60851;SDS011;48553;50.766;2.900;2023-06-14T17:19:37;4.85;;;3.20;;
60851;SDS011;48553;50.766;2.900;2023-06-14T17:22:38;6.97;;;3.10;;
60851;SDS011;48553;50.766;2.900;2023-06-14T17:25:40;5.40;;;3.00;;
60851;SDS011;48553;50.766;2.900;2023-06-14T17:28:41;6.65;;;3.28;;
60851;SDS011;48553;50.766;2.900;2023-06-14T17:31:41;6.00;;;3.22;;
60851;SDS011;48553;50.766;2.900;2023-06-14T17:34:42;5.20;;;3.17;;
60851;SDS011;48553;50.766;2.900;2023-06-14T17:37:42;6.82;;;2.83;;
60851;SDS011;48553;50.766;2.900;2023-06-14T17:40:42;5.95;;;2.78;;
60851;SDS011;48553;50.766;2.900;2023-06-14T17:43:43;5.43;;;2.90;;
60851;SDS011;48553;50.766;2.900;2023-06-14T17:46:43;6.03;;;3.28;;
60851;SDS011;48553;50.766;2.900;2023-06-14T17:49:44;5.53;;;3.53;;
60851;SDS011;48553;50.766;2.900;2023-06-14T17:52:45;6.78;;;3.67;;
60851;SDS011;48553;50.766;2.900;2023-06-14T17:55:45;6.80;;;4.20;;
60851;SDS011;48553;50.766;2.900;2023-06-14T17:58:46;6.85;;;3.35;;
60851;SDS011;48553;50.766;2.900;2023-06-14T18:01:46;5.70;;;3.45;;
60851;SDS011;48553;50.766;2.900;2023-06-14T18:04:47;6.53;;;3.65;;
60851;SDS011;48553;50.766;2.900;2023-06-14T18:07:47;6.25;;;3.30;;
60851;SDS011;48553;50.766;2.900;2023-06-14T18:10:48;6.40;;;3.00;;
60851;SDS011;48553;50.766;2.900;2023-06-14T18:13:48;6.28;;;3.03;;
60851;SDS011;48553;50.766;2.900;2023-06-14T18:16:49;5.45;;;2.90;;
60851;SDS011;48553;50.766;2.900;2023-06-14T18:19:50;4.85;;;2.22;;
60851;SDS011;48553;50.766;2.900;2023-06-14T18:22:50;6.75;;;2.50;;
60851;SDS011;48553;50.766;2.900;2023-06-14T18:25:51;5.78;;;2.42;;
60851;SDS011;48553;50.766;2.900;2023-06-14T18:28:53;5.55;;;2.33;;
60851;SDS011;48553;50.766;2.900;2023-06-14T18:31:54;4.03;;;1.92;;
60851;SDS011;48553;50.766;2.900;2023-06-14T18:34:56;3.97;;;2.35;;
60851;SDS011;48553;50.766;2.900;2023-06-14T18:37:57;3.65;;;2.13;;